sensor_id;sensor_type;location;lat;lon;timestamp;pressure;altitude;pressure_sealevel;temperature;humidity
22743;BME280;11538;48.884;8.696;2023-05-23T00:02:13;98614.44;;;16.72;100.00
22743;BME280;11538;48.884;8.696;2023-05-23T00:04:41;98607.81;;;16.73;100.00
22743;BME280;11538;48.884;8.696;2023-05-23T00:07:11;98608.28;;;16.75;100.00
22743;BME280;11538;48.884;8.696;2023-05-23T00:09:41;98611.25;;;16.70;100.00
22743;BME280;11538;48.884;8.696;2023-05-23T00:12:08;98607.16;;;16.64;100.00
22743;BME280;11538;48.884;8.696;2023-05-23T00:14:34;98607.16;;;16.64;100.00
22743;BME280;11538;48.884;8.696;2023-05-23T00:17:01;98612.63;;;16.64;100.00
22743;BME280;11538;48.884;8.696;2023-05-23T00:19:28;98606.22;;;16.72;100.00
22743;BME280;11538;48.884;8.696;2023-05-23T00:21:56;98612.59;;;16.76;100.00
22743;BME280;11538;48.884;8.696;2023-05-23T00:24:24;98611.00;;;16.75;100.00
22743;BME280;11538;48.884;8.696;2023-05-23T00:26:51;98606.34;;;16.76;100.00
22743;BME280;11538;48.884;8.696;2023-05-23T00:29:18;98611.47;;;16.77;100.00
22743;BME280;11538;48.884;8.696;2023-05-23T00:31:46;98614.31;;;16.81;100.00
22743;BME280;11538;48.884;8.696;2023-05-23T00:34:16;98616.00;;;16.86;100.00
22743;BME280;11538;48.884;8.696;2023-05-23T00:36:44;98620.34;;;16.87;100.00
22743;BME280;11538;48.884;8.696;2023-05-23T00:39:13;98621.25;;;16.91;100.00
22743;BME280;11538;48.884;8.696;2023-05-23T00:41:48;98624.69;;;16.88;100.00
22743;BME280;11538;48.884;8.696;2023-05-23T00:44:18;98629.00;;;16.89;100.00
22743;BME280;11538;48.884;8.696;2023-05-23T00:46:51;98620.91;;;16.92;100.00
22743;BME280;11538;48.884;8.696;2023-05-23T00:49:20;98626.03;;;16.94;100.00
22743;BME280;11538;48.884;8.696;2023-05-23T00:51:48;98625.81;;;16.99;100.00
22743;BME280;11538;48.884;8.696;2023-05-23T00:54:28;98618.75;;;16.98;100.00
22743;BME280;11538;48.884;8.696;2023-05-23T00:56:57;98617.47;;;16.95;100.00
22743;BME280;11538;48.884;8.696;2023-05-23T00:59:25;98624.09;;;16.94;100.00
22743;BME280;11538;48.884;8.696;2023-05-23T01:01:56;98628.44;;;16.95;100.00
22743;BME280;11538;48.884;8.696;2023-05-23T01:04:27;98625.38;;;16.97;100.00
22743;BME280;11538;48.884;8.696;2023-05-23T01:06:58;98637.94;;;16.98;100.00
22743;BME280;11538;48.884;8.696;2023-05-23T01:09:27;98629.47;;;17.03;100.00
22743;BME280;11538;48.884;8.696;2023-05-23T01:15:07;98637.00;;;17.06;100.00
22743;BME280;11538;48.884;8.696;2023-05-23T01:17:58;98632.78;;;17.09;100.00
22743;BME280;11538;48.884;8.696;2023-05-23T01:20:40;98637.09;;;17.10;100.00
22743;BME280;11538;48.884;8.696;2023-05-23T01:29:13;98631.38;;;17.15;100.00
22743;BME280;11538;48.884;8.696;2023-05-23T01:31:44;98630.25;;;17.16;100.00
22743;BME280;11538;48.884;8.696;2023-05-23T01:34:13;98636.16;;;17.18;100.00
22743;BME280;11538;48.884;8.696;2023-05-23T01:36:42;98633.88;;;17.20;100.00
22743;BME280;11538;48.884;8.696;2023-05-23T01:39:10;98633.75;;;17.17;100.00
22743;BME280;11538;48.884;8.696;2023-05-23T01:41:37;98635.28;;;17.14;100.00
22743;BME280;11538;48.884;8.696;2023-05-23T01:44:04;98632.84;;;17.13;100.00
22743;BME280;11538;48.884;8.696;2023-05-23T01:46:33;98625.09;;;17.15;100.00
22743;BME280;11538;48.884;8.696;2023-05-23T01:49:03;98626.69;;;17.16;100.00
22743;BME280;11538;48.884;8.696;2023-05-23T01:51:33;98625.09;;;17.15;100.00
22743;BME280;11538;48.884;8.696;2023-05-23T01:54:00;98635.59;;;17.13;100.00
22743;BME280;11538;48.884;8.696;2023-05-23T01:56:28;98634.00;;;17.12;100.00
22743;BME280;11538;48.884;8.696;2023-05-23T01:58:56;98634.91;;;17.16;100.00
22743;BME280;11538;48.884;8.696;2023-05-23T02:01:23;98636.41;;;17.13;100.00
22743;BME280;11538;48.884;8.696;2023-05-23T02:03:50;98637.44;;;17.08;100.00
22743;BME280;11538;48.884;8.696;2023-05-23T02:06:20;98634.84;;;17.00;100.00
22743;BME280;11538;48.884;8.696;2023-05-23T02:08:47;98638.81;;;17.02;100.00
22743;BME280;11538;48.884;8.696;2023-05-23T02:11:14;98643.63;;;17.05;100.00
22743;BME280;11538;48.884;8.696;2023-05-23T02:13:41;98639.84;;;17.10;100.00
22743;BME280;11538;48.884;8.696;2023-05-23T02:16:11;98633.56;;;17.09;100.00
22743;BME280;11538;48.884;8.696;2023-05-23T02:18:39;98644.97;;;17.12;100.00
22743;BME280;11538;48.884;8.696;2023-05-23T02:21:06;98646.81;;;17.07;100.00
22743;BME280;11538;48.884;8.696;2023-05-23T02:23:33;98643.97;;;17.04;100.00
22743;BME280;11538;48.884;8.696;2023-05-23T02:26:02;98651.38;;;17.03;100.00
22743;BME280;11538;48.884;8.696;2023-05-23T02:28:36;98644.44;;;17.06;100.00
22743;BME280;11538;48.884;8.696;2023-05-23T02:31:03;98647.94;;;17.06;100.00
22743;BME280;11538;48.884;8.696;2023-05-23T02:33:30;98637.22;;;17.01;100.00
22743;BME280;11538;48.884;8.696;2023-05-23T02:35:57;98641.25;;;17.04;100.00
22743;BME280;11538;48.884;8.696;2023-05-23T02:38:24;98636.53;;;17.04;100.00
22743;BME280;11538;48.884;8.696;2023-05-23T02:40:52;98652.28;;;17.07;100.00
22743;BME280;11538;48.884;8.696;2023-05-23T02:43:19;98652.28;;;17.07;100.00
22743;BME280;11538;48.884;8.696;2023-05-23T02:45:46;98654.13;;;17.03;100.00
22743;BME280;11538;48.884;8.696;2023-05-23T02:48:13;98656.09;;;17.03;100.00
22743;BME280;11538;48.884;8.696;2023-05-23T02:50:40;98654.56;;;17.05;100.00
22743;BME280;11538;48.884;8.696;2023-05-23T02:53:07;98664.38;;;17.06;100.00
22743;BME280;11538;48.884;8.696;2023-05-23T02:55:33;98664.84;;;17.08;100.00
22743;BME280;11538;48.884;8.696;2023-05-23T02:58:01;98653.78;;;17.05;100.00
22743;BME280;11538;48.884;8.696;2023-05-23T03:00:31;98663.59;;;17.06;100.00
22743;BME280;11538;48.884;8.696;2023-05-23T03:02:58;98663.81;;;17.13;100.00
22743;BME280;11538;48.884;8.696;2023-05-23T03:05:25;98663.44;;;17.15;100.00
22743;BME280;11538;48.884;8.696;2023-05-23T03:07:52;98658.78;;;17.15;100.00
22743;BME280;11538;48.884;8.696;2023-05-23T03:10:20;98658.34;;;17.13;100.00
22743;BME280;11538;48.884;8.696;2023-05-23T03:12:47;98665.75;;;17.13;100.00
22743;BME280;11538;48.884;8.696;2023-05-23T03:15:13;98660.25;;;17.13;100.00
22743;BME280;11538;48.884;8.696;2023-05-23T03:17:41;98663.81;;;17.13;100.00
22743;BME280;11538;48.884;8.696;2023-05-23T03:20:08;98665.06;;;17.16;100.00
22743;BME280;11538;48.884;8.696;2023-05-23T03:22:36;98659.31;;;17.21;100.00
22743;BME280;11538;48.884;8.696;2023-05-23T03:25:06;98666.88;;;17.24;100.00
22743;BME280;11538;48.884;8.696;2023-05-23T03:27:32;98668.56;;;17.29;100.00
22743;BME280;11538;48.884;8.696;2023-05-23T03:29:59;98665.56;;;17.34;100.00
22743;BME280;11538;48.884;8.696;2023-05-23T03:32:26;98673.56;;;17.39;100.00
22743;BME280;11538;48.884;8.696;2023-05-23T03:34:53;98671.97;;;17.38;100.00
22743;BME280;11538;48.884;8.696;2023-05-23T03:37:20;98677.13;;;17.39;100.00
22743;BME280;11538;48.884;8.696;2023-05-23T03:39:47;98671.06;;;17.34;100.00
22743;BME280;11538;48.884;8.696;2023-05-23T03:42:14;98686.03;;;17.36;100.00
22743;BME280;11538;48.884;8.696;2023-05-23T03:44:41;98686.81;;;17.37;100.00
22743;BME280;11538;48.884;8.696;2023-05-23T03:47:08;98678.72;;;17.41;100.00
22743;BME280;11538;48.884;8.696;2023-05-23T03:49:35;98685.09;;;17.45;100.00
22743;BME280;11538;48.884;8.696;2023-05-23T03:52:02;98679.25;;;17.46;100.00
22743;BME280;11538;48.884;8.696;2023-05-23T03:54:29;98683.25;;;17.49;100.00
22743;BME280;11538;48.884;8.696;2023-05-23T03:56:56;98685.63;;;17.50;100.00
22743;BME280;11538;48.884;8.696;2023-05-23T03:59:23;98682.44;;;17.48;100.00
22743;BME280;11538;48.884;8.696;2023-05-23T04:01:49;98680.50;;;17.49;100.00
22743;BME280;11538;48.884;8.696;2023-05-23T04:04:16;98681.19;;;17.46;100.00
22743;BME280;11538;48.884;8.696;2023-05-23T04:06:44;98686.94;;;17.41;100.00
22743;BME280;11538;48.884;8.696;2023-05-23T04:09:12;98686.13;;;17.40;100.00
22743;BME280;11538;48.884;8.696;2023-05-23T04:11:40;98688.16;;;17.43;100.00
22743;BME280;11538;48.884;8.696;2023-05-23T04:14:07;98687.84;;;17.45;100.00
22743;BME280;11538;48.884;8.696;2023-05-23T04:16:34;98694.47;;;17.44;100.00
22743;BME280;11538;48.884;8.696;2023-05-23T04:19:04;98693.31;;;17.45;100.00
22743;BME280;11538;48.884;8.696;2023-05-23T04:21:32;98691.72;;;17.44;100.00
22743;BME280;11538;48.884;8.696;2023-05-23T04:24:00;98693.31;;;17.45;100.00
22743;BME280;11538;48.884;8.696;2023-05-23T04:26:28;98705.06;;;17.45;100.00
22743;BME280;11538;48.884;8.696;2023-05-23T04:28:54;98697.66;;;17.46;100.00
22743;BME280;11538;48.884;8.696;2023-05-23T04:31:22;98697.19;;;17.44;100.00
22743;BME280;11538;48.884;8.696;2023-05-23T04:33:49;98700.72;;;17.44;100.00
22743;BME280;11538;48.884;8.696;2023-05-23T04:36:16;98698.22;;;17.39;100.00
22743;BME280;11538;48.884;8.696;2023-05-23T04:38:43;98702.13;;;17.38;100.00
22743;BME280;11538;48.884;8.696;2023-05-23T04:41:10;98707.97;;;17.36;100.00
22743;BME280;11538;48.884;8.696;2023-05-23T04:43:37;98713.91;;;17.38;100.00
22743;BME280;11538;48.884;8.696;2023-05-23T04:46:08;98713.09;;;17.38;100.00
22743;BME280;11538;48.884;8.696;2023-05-23T04:48:36;98716.63;;;17.38;100.00
22743;BME280;11538;48.884;8.696;2023-05-23T04:51:04;98724.06;;;17.38;100.00
22743;BME280;11538;48.884;8.696;2023-05-23T04:53:34;98725.19;;;17.37;100.00
22743;BME280;11538;48.884;8.696;2023-05-23T04:56:02;98726.78;;;17.38;100.00
22743;BME280;11538;48.884;8.696;2023-05-23T04:58:29;98729.53;;;17.38;100.00
22743;BME280;11538;48.884;8.696;2023-05-23T05:00:57;98726.34;;;17.36;100.00
22743;BME280;11538;48.884;8.696;2023-05-23T05:03:24;98732.19;;;17.34;100.00
22743;BME280;11538;48.884;8.696;2023-05-23T05:05:52;98727.50;;;17.35;100.00
22743;BME280;11538;48.884;8.696;2023-05-23T05:08:19;98734.13;;;17.34;100.00
22743;BME280;11538;48.884;8.696;2023-05-23T05:10:46;98735.63;;;17.31;100.00
22743;BME280;11538;48.884;8.696;2023-05-23T05:13:13;98739.84;;;17.29;100.00
22743;BME280;11538;48.884;8.696;2023-05-23T05:15:40;98738.69;;;17.30;100.00
22743;BME280;11538;48.884;8.696;2023-05-23T05:18:08;98741.88;;;17.32;100.00
22743;BME280;11538;48.884;8.696;2023-05-23T05:20:35;98736.75;;;17.30;100.00
22743;BME280;11538;48.884;8.696;2023-05-23T05:23:02;98739.84;;;17.29;100.00
22743;BME280;11538;48.884;8.696;2023-05-23T05:25:29;98749.19;;;17.28;100.00
22743;BME280;11538;48.884;8.696;2023-05-23T05:28:01;98744.78;;;17.23;100.00
22743;BME280;11538;48.884;8.696;2023-05-23T05:30:47;98750.59;;;17.21;100.00
22743;BME280;11538;48.884;8.696;2023-05-23T05:33:20;98746.69;;;17.22;100.00
22743;BME280;11538;48.884;8.696;2023-05-23T05:35:51;98748.63;;;17.22;100.00
22743;BME280;11538;48.884;8.696;2023-05-23T05:38:20;98750.25;;;17.23;100.00
22743;BME280;11538;48.884;8.696;2023-05-23T05:40:48;98754.59;;;17.24;100.00
22743;BME280;11538;48.884;8.696;2023-05-23T05:43:15;98751.38;;;17.22;100.00
22743;BME280;11538;48.884;8.696;2023-05-23T05:45:42;98750.59;;;17.21;100.00
22743;BME280;11538;48.884;8.696;2023-05-23T05:48:08;98752.63;;;17.24;100.00
22743;BME280;11538;48.884;8.696;2023-05-23T05:50:35;98759.47;;;17.31;100.00
22743;BME280;11538;48.884;8.696;2023-05-23T05:53:02;98759.38;;;17.27;100.00
22743;BME280;11538;48.884;8.696;2023-05-23T05:55:29;98766.69;;;17.23;100.00
22743;BME280;11538;48.884;8.696;2023-05-23T05:57:57;98765.44;;;17.20;100.00
22743;BME280;11538;48.884;8.696;2023-05-23T06:00:24;98762.81;;;17.24;100.00
22743;BME280;11538;48.884;8.696;2023-05-23T06:02:51;98764.50;;;17.29;100.00
22743;BME280;11538;48.884;8.696;2023-05-23T06:05:20;98759.47;;;17.31;100.00
22743;BME280;11538;48.884;8.696;2023-05-23T06:07:48;98759.38;;;17.27;100.00
22743;BME280;11538;48.884;8.696;2023-05-23T06:10:16;98768.16;;;17.33;100.00
22743;BME280;11538;48.884;8.696;2023-05-23T06:12:43;98769.66;;;17.30;100.00
22743;BME280;11538;48.884;8.696;2023-05-23T06:15:11;98773.41;;;17.25;100.00
22743;BME280;11538;48.884;8.696;2023-05-23T06:17:41;98770.69;;;17.25;100.00
22743;BME280;11538;48.884;8.696;2023-05-23T06:20:11;98780.41;;;17.23;100.00
22743;BME280;11538;48.884;8.696;2023-05-23T06:22:38;98784.16;;;17.18;100.00
22743;BME280;11538;48.884;8.696;2023-05-23T06:25:06;98780.63;;;17.18;100.00
22743;BME280;11538;48.884;8.696;2023-05-23T06:27:33;98789.88;;;17.13;100.00
22743;BME280;11538;48.884;8.696;2023-05-23T06:30:01;98787.47;;;17.12;100.00
22743;BME280;11538;48.884;8.696;2023-05-23T06:32:28;98790.66;;;17.14;100.00
22743;BME280;11538;48.884;8.696;2023-05-23T06:34:55;98797.28;;;17.13;100.00
22743;BME280;11538;48.884;8.696;2023-05-23T06:37:22;98801.97;;;17.12;100.00
22743;BME280;11538;48.884;8.696;2023-05-23T06:39:49;98804.38;;;17.14;100.00
22743;BME280;11538;48.884;8.696;2023-05-23T06:42:16;98815.09;;;17.19;100.00
22743;BME280;11538;48.884;8.696;2023-05-23T06:44:43;98819.09;;;17.21;100.00
22743;BME280;11538;48.884;8.696;2023-05-23T06:47:10;98827.00;;;17.23;100.00
22743;BME280;11538;48.884;8.696;2023-05-23T06:49:37;98814.78;;;17.20;100.00
22743;BME280;11538;48.884;8.696;2023-05-23T06:52:04;98823.31;;;17.19;100.00
22743;BME280;11538;48.884;8.696;2023-05-23T06:54:31;98829.94;;;17.18;100.00
22743;BME280;11538;48.884;8.696;2023-05-23T06:56:58;98838.16;;;17.18;100.00
22743;BME280;11538;48.884;8.696;2023-05-23T06:59:25;98844.91;;;17.20;100.00
22743;BME280;11538;48.884;8.696;2023-05-23T07:01:52;98853.94;;;17.21;100.00
22743;BME280;11538;48.884;8.696;2023-05-23T07:04:21;98861.50;;;17.24;100.00
22743;BME280;11538;48.884;8.696;2023-05-23T07:06:48;98863.66;;;17.18;100.00
22743;BME280;11538;48.884;8.696;2023-05-23T07:09:16;98866.25;;;17.15;100.00
22743;BME280;11538;48.884;8.696;2023-05-23T07:11:43;98860.00;;;17.14;100.00
22743;BME280;11538;48.884;8.696;2023-05-23T07:14:10;98868.53;;;17.13;100.00
22743;BME280;11538;48.884;8.696;2023-05-23T07:16:37;98866.63;;;17.13;100.00
22743;BME280;11538;48.884;8.696;2023-05-23T07:19:05;98870.59;;;17.16;100.00
22743;BME280;11538;48.884;8.696;2023-05-23T07:21:35;98870.50;;;17.24;100.00
22743;BME280;11538;48.884;8.696;2023-05-23T07:24:02;98876.66;;;17.34;100.00
22743;BME280;11538;48.884;8.696;2023-05-23T07:26:29;98871.19;;;17.34;100.00
22743;BME280;11538;48.884;8.696;2023-05-23T07:28:57;98870.50;;;17.37;100.00
22743;BME280;11538;48.884;8.696;2023-05-23T07:31:24;98872.31;;;17.45;100.00
22743;BME280;11538;48.884;8.696;2023-05-23T07:33:51;98874.59;;;17.43;100.00
22743;BME280;11538;48.884;8.696;2023-05-23T07:36:22;98876.34;;;17.48;100.00
22743;BME280;11538;48.884;8.696;2023-05-23T07:38:49;98870.84;;;17.48;100.00
22743;BME280;11538;48.884;8.696;2023-05-23T07:41:16;98876.22;;;17.44;100.00
22743;BME280;11538;48.884;8.696;2023-05-23T07:43:43;98881.38;;;17.46;100.00
22743;BME280;11538;48.884;8.696;2023-05-23T07:46:10;98875.41;;;17.44;100.00
22743;BME280;11538;48.884;8.696;2023-05-23T07:48:37;98879.75;;;17.45;100.00
22743;BME280;11538;48.884;8.696;2023-05-23T07:51:04;98880.44;;;17.42;100.00
22743;BME280;11538;48.884;8.696;2023-05-23T07:53:31;98878.94;;;17.44;100.00
22743;BME280;11538;48.884;8.696;2023-05-23T07:55:57;98877.47;;;17.47;100.00
22743;BME280;11538;48.884;8.696;2023-05-23T07:58:24;98886.94;;;17.49;100.00
22743;BME280;11538;48.884;8.696;2023-05-23T08:00:51;98888.31;;;17.43;100.00
22743;BME280;11538;48.884;8.696;2023-05-23T08:03:19;98887.31;;;17.35;100.00
22743;BME280;11538;48.884;8.696;2023-05-23T08:05:46;98887.75;;;17.37;100.00
22743;BME280;11538;48.884;8.696;2023-05-23T08:08:13;98885.94;;;17.42;100.00
22743;BME280;11538;48.884;8.696;2023-05-23T08:10:40;98894.94;;;17.42;100.00
22743;BME280;11538;48.884;8.696;2023-05-23T08:13:09;98896.09;;;17.41;100.00
22743;BME280;11538;48.884;8.696;2023-05-23T08:15:36;98892.09;;;17.38;100.00
22743;BME280;11538;48.884;8.696;2023-05-23T08:18:03;98893.03;;;17.43;100.00
22743;BME280;11538;48.884;8.696;2023-05-23T08:20:30;98892.34;;;17.46;100.00
22743;BME280;11538;48.884;8.696;2023-05-23T08:22:59;98895.63;;;17.51;100.00
22743;BME280;11538;48.884;8.696;2023-05-23T08:25:27;98899.50;;;17.50;100.00
22743;BME280;11538;48.884;8.696;2023-05-23T08:27:57;98890.72;;;17.45;100.00
22743;BME280;11538;48.884;8.696;2023-05-23T08:30:28;98898.50;;;17.43;100.00
22743;BME280;11538;48.884;8.696;2023-05-23T08:32:56;98904.78;;;17.43;100.00
22743;BME280;11538;48.884;8.696;2023-05-23T08:35:23;98902.38;;;17.42;100.00
22743;BME280;11538;48.884;8.696;2023-05-23T08:37:51;98917.00;;;17.46;100.00
22743;BME280;11538;48.884;8.696;2023-05-23T08:40:21;98909.25;;;17.48;100.00
22743;BME280;11538;48.884;8.696;2023-05-23T08:42:49;98918.16;;;17.57;100.00
22743;BME280;11538;48.884;8.696;2023-05-23T08:45:17;98912.44;;;17.62;100.00
22743;BME280;11538;48.884;8.696;2023-05-23T08:47:45;98912.66;;;17.69;100.00
22743;BME280;11538;48.884;8.696;2023-05-23T08:50:15;98919.84;;;17.74;100.00
22743;BME280;11538;48.884;8.696;2023-05-23T08:52:57;98916.75;;;17.76;100.00
22743;BME280;11538;48.884;8.696;2023-05-23T08:55:27;98917.22;;;17.78;100.00
22743;BME280;11538;48.884;8.696;2023-05-23T08:57:57;98911.28;;;17.76;100.00
22743;BME280;11538;48.884;8.696;2023-05-23T09:00:29;98914.47;;;17.78;100.00
22743;BME280;11538;48.884;8.696;2023-05-23T09:02:56;98921.09;;;17.77;100.00
22743;BME280;11538;48.884;8.696;2023-05-23T09:05:25;98927.16;;;17.70;96.94
22743;BME280;11538;48.884;8.696;2023-05-23T09:07:52;98926.69;;;17.68;97.93
22743;BME280;11538;48.884;8.696;2023-05-23T09:10:20;98932.41;;;17.75;98.64
22743;BME280;11538;48.884;8.696;2023-05-23T09:12:48;98926.91;;;17.75;98.41
22743;BME280;11538;48.884;8.696;2023-05-23T09:15:15;98928.75;;;17.71;97.89
22743;BME280;11538;48.884;8.696;2023-05-23T09:17:43;98933.31;;;17.67;96.87
22743;BME280;11538;48.884;8.696;2023-05-23T09:20:14;98935.06;;;17.72;97.18
22743;BME280;11538;48.884;8.696;2023-05-23T09:22:46;98938.03;;;17.79;96.78
22743;BME280;11538;48.884;8.696;2023-05-23T09:25:14;98943.38;;;17.88;96.42
22743;BME280;11538;48.884;8.696;2023-05-23T09:27:42;98947.06;;;17.92;94.94
22743;BME280;11538;48.884;8.696;2023-05-23T09:30:14;98939.59;;;18.05;95.68
22743;BME280;11538;48.884;8.696;2023-05-23T09:32:41;98946.47;;;18.11;94.59
22743;BME280;11538;48.884;8.696;2023-05-23T09:35:08;98943.84;;;18.15;94.10
22743;BME280;11538;48.884;8.696;2023-05-23T09:37:44;98939.25;;;18.19;93.38
22743;BME280;11538;48.884;8.696;2023-05-23T09:40:14;98940.59;;;18.25;92.46
22743;BME280;11538;48.884;8.696;2023-05-23T09:42:44;98936.47;;;18.31;92.67
22743;BME280;11538;48.884;8.696;2023-05-23T09:45:13;98936.91;;;18.33;92.19
22743;BME280;11538;48.884;8.696;2023-05-23T09:47:52;98935.19;;;18.29;92.75
22743;BME280;11538;48.884;8.696;2023-05-23T09:50:21;98932.25;;;18.21;92.35
22743;BME280;11538;48.884;8.696;2023-05-23T09:52:48;98936.28;;;18.11;93.27
22743;BME280;11538;48.884;8.696;2023-05-23T09:55:18;98938.59;;;18.09;94.25
22743;BME280;11538;48.884;8.696;2023-05-23T09:57:52;98937.78;;;18.09;94.52
22743;BME280;11538;48.884;8.696;2023-05-23T10:00:23;98942.03;;;18.06;95.45
22743;BME280;11538;48.884;8.696;2023-05-23T10:03:11;98948.53;;;18.02;95.97
22743;BME280;11538;48.884;8.696;2023-05-23T10:05:49;98945.66;;;17.98;93.90
22743;BME280;11538;48.884;8.696;2023-05-23T10:08:43;98944.84;;;17.97;94.98
22743;BME280;11538;48.884;8.696;2023-05-23T10:13:46;98945.09;;;18.05;95.56
22743;BME280;11538;48.884;8.696;2023-05-23T10:16:23;98946.38;;;18.07;95.99
22743;BME280;11538;48.884;8.696;2023-05-23T10:19:02;98953.00;;;18.06;95.83
22743;BME280;11538;48.884;8.696;2023-05-23T10:22:13;98954.59;;;18.07;93.06
22743;BME280;11538;48.884;8.696;2023-05-23T10:24:44;98951.94;;;18.11;91.50
22743;BME280;11538;48.884;8.696;2023-05-23T10:27:12;98949.19;;;18.11;90.18
22743;BME280;11538;48.884;8.696;2023-05-23T10:29:40;98960.50;;;18.22;90.74
22743;BME280;11538;48.884;8.696;2023-05-23T10:32:09;98952.38;;;18.25;88.65
22743;BME280;11538;48.884;8.696;2023-05-23T10:35:11;98952.25;;;18.34;86.98
22743;BME280;11538;48.884;8.696;2023-05-23T10:37:51;98953.22;;;18.42;88.13
22743;BME280;11538;48.884;8.696;2023-05-23T10:45:40;98947.28;;;18.40;86.47
22743;BME280;11538;48.884;8.696;2023-05-23T10:48:33;98947.03;;;18.45;85.46
22743;BME280;11538;48.884;8.696;2023-05-23T10:51:09;98943.06;;;18.42;85.42
22743;BME280;11538;48.884;8.696;2023-05-23T10:53:52;98947.19;;;18.36;86.12
22743;BME280;11538;48.884;8.696;2023-05-23T10:56:23;98947.31;;;18.27;86.82
22743;BME280;11538;48.884;8.696;2023-05-23T10:58:54;98950.06;;;18.27;87.84
22743;BME280;11538;48.884;8.696;2023-05-23T11:01:22;98952.25;;;18.34;88.63
22743;BME280;11538;48.884;8.696;2023-05-23T11:03:53;98946.53;;;18.27;86.97
22743;BME280;11538;48.884;8.696;2023-05-23T11:06:36;98953.28;;;18.30;87.84
22743;BME280;11538;48.884;8.696;2023-05-23T11:09:21;98956.34;;;18.40;87.52
22743;BME280;11538;48.884;8.696;2023-05-23T11:12:01;98949.97;;;18.65;87.84
22743;BME280;11538;48.884;8.696;2023-05-23T11:17:15;98944.34;;;18.90;82.25
22743;BME280;11538;48.884;8.696;2023-05-23T11:20:04;98943.53;;;19.18;80.71
22743;BME280;11538;48.884;8.696;2023-05-23T11:22:35;98947.44;;;19.65;78.93
22743;BME280;11538;48.884;8.696;2023-05-23T11:25:09;98953.28;;;19.95;76.63
22743;BME280;11538;48.884;8.696;2023-05-23T11:27:39;98947.22;;;20.06;74.04
22743;BME280;11538;48.884;8.696;2023-05-23T11:30:16;98950.47;;;20.51;73.04
22743;BME280;11538;48.884;8.696;2023-05-23T11:32:52;98944.25;;;20.73;71.79
22743;BME280;11538;48.884;8.696;2023-05-23T11:35:22;98945.84;;;20.35;71.31
22743;BME280;11538;48.884;8.696;2023-05-23T11:37:49;98935.53;;;20.32;73.16
22743;BME280;11538;48.884;8.696;2023-05-23T11:40:33;98935.69;;;20.20;73.41
22743;BME280;11538;48.884;8.696;2023-05-23T11:43:04;98945.59;;;20.05;73.80
22743;BME280;11538;48.884;8.696;2023-05-23T11:45:33;98944.56;;;19.93;74.72
22743;BME280;11538;48.884;8.696;2023-05-23T11:48:08;98945.88;;;19.83;75.30
22743;BME280;11538;48.884;8.696;2023-05-23T11:50:50;98938.63;;;19.91;75.75
22743;BME280;11538;48.884;8.696;2023-05-23T11:53:21;98945.28;;;19.90;75.47
22743;BME280;11538;48.884;8.696;2023-05-23T11:55:56;98940.72;;;19.82;75.16
22743;BME280;11538;48.884;8.696;2023-05-23T11:58:30;98933.75;;;19.68;75.90
22743;BME280;11538;48.884;8.696;2023-05-23T12:01:07;98942.69;;;19.81;76.64
22743;BME280;11538;48.884;8.696;2023-05-23T12:03:49;98944.19;;;19.95;74.49
22743;BME280;11538;48.884;8.696;2023-05-23T12:06:21;98935.91;;;20.11;74.64
22743;BME280;11538;48.884;8.696;2023-05-23T12:08:53;98933.66;;;20.36;73.77
22743;BME280;11538;48.884;8.696;2023-05-23T12:11:21;98935.50;;;20.48;72.29
22743;BME280;11538;48.884;8.696;2023-05-23T12:13:51;98933.22;;;20.54;73.15
22743;BME280;11538;48.884;8.696;2023-05-23T12:16:20;98915.25;;;20.60;71.43
22743;BME280;11538;48.884;8.696;2023-05-23T12:18:47;98926.16;;;20.96;71.40
22743;BME280;11538;48.884;8.696;2023-05-23T12:21:14;98918.72;;;22.27;68.93
22743;BME280;11538;48.884;8.696;2023-05-23T12:23:41;98909.56;;;23.29;64.47
22743;BME280;11538;48.884;8.696;2023-05-23T12:26:08;98915.06;;;23.81;61.95
22743;BME280;11538;48.884;8.696;2023-05-23T12:28:40;98909.38;;;23.60;60.78
22743;BME280;11538;48.884;8.696;2023-05-23T12:31:21;98913.31;;;22.69;62.73
22743;BME280;11538;48.884;8.696;2023-05-23T12:33:52;98902.72;;;22.10;64.11
22743;BME280;11538;48.884;8.696;2023-05-23T12:36:26;98900.41;;;21.58;65.41
22743;BME280;11538;48.884;8.696;2023-05-23T12:39:02;98901.91;;;21.05;66.45
22743;BME280;11538;48.884;8.696;2023-05-23T12:41:29;98899.78;;;20.75;69.62
22743;BME280;11538;48.884;8.696;2023-05-23T12:43:56;98904.59;;;20.58;71.40
22743;BME280;11538;48.884;8.696;2023-05-23T12:46:25;98916.78;;;20.38;73.45
22743;BME280;11538;48.884;8.696;2023-05-23T12:48:53;98924.19;;;20.14;74.60
22743;BME280;11538;48.884;8.696;2023-05-23T12:51:21;98919.53;;;19.98;76.37
22743;BME280;11538;48.884;8.696;2023-05-23T12:53:48;98920.16;;;19.92;77.16
22743;BME280;11538;48.884;8.696;2023-05-23T12:56:15;98911.59;;;19.81;78.22
22743;BME280;11538;48.884;8.696;2023-05-23T12:58:42;98914.09;;;19.86;78.88
22743;BME280;11538;48.884;8.696;2023-05-23T13:01:09;98918.28;;;19.80;78.84
22743;BME280;11538;48.884;8.696;2023-05-23T13:03:36;98919.69;;;19.73;79.02
22743;BME280;11538;48.884;8.696;2023-05-23T13:06:04;98913.41;;;19.73;79.37
22743;BME280;11538;48.884;8.696;2023-05-23T13:08:33;98920.34;;;19.67;79.34
22743;BME280;11538;48.884;8.696;2023-05-23T13:11:00;98912.72;;;19.60;79.66
22743;BME280;11538;48.884;8.696;2023-05-23T13:13:27;98913.38;;;19.53;79.19
22743;BME280;11538;48.884;8.696;2023-05-23T13:15:55;98901.81;;;19.48;79.16
22743;BME280;11538;48.884;8.696;2023-05-23T13:18:22;98903.63;;;19.40;78.79
22743;BME280;11538;48.884;8.696;2023-05-23T13:20:49;98916.22;;;19.41;78.29
22743;BME280;11538;48.884;8.696;2023-05-23T13:23:16;98914.25;;;19.41;78.06
22743;BME280;11538;48.884;8.696;2023-05-23T13:25:43;98917.97;;;19.49;78.11